Terminal Aerodrome Forecast
Issued by NWS

Home | Current Version | Previous Version | Text Only | Print | Product List | Glossary On
Versions: 1 2 3 4 5 6 7 8 9 10 11 12 13 14 15 16 17 18 19 20 21 22 23 24
000
FTAK31 PANC 252333
TAFAVD
TAF
PAVD 252333Z 2600/2624 25006KT P6SM FEW100 BKN200
     FM260700 VRB05KT P6SM FEW050 SCT200
     FM262000 27011KT P6SM SCT050 BKN100
      AMD LTD TO CLD VIS AND WIND=

USA.gov is the U.S. government's official web portal to all federal, state and local government web resources and services.